sensor_id;sensor_type;location;lat;lon;timestamp;pressure;altitude;pressure_sealevel;temperature;humidity
9695;BME280;4690;52.422;13.486;2024-02-26T00:09:54;100174.50;;;4.60;83.40
9695;BME280;4690;52.422;13.486;2024-02-26T00:12:20;100172.00;;;4.58;84.53
9695;BME280;4690;52.422;13.486;2024-02-26T00:14:46;100160.13;;;4.59;83.99
9695;BME280;4690;52.422;13.486;2024-02-26T00:17:13;100164.06;;;4.57;84.22
9695;BME280;4690;52.422;13.486;2024-02-26T00:19:39;100170.72;;;4.54;84.16
9695;BME280;4690;52.422;13.486;2024-02-26T00:22:04;100156.94;;;4.49;83.88
9695;BME280;4690;52.422;13.486;2024-02-26T00:24:30;100149.84;;;4.48;84.13
9695;BME280;4690;52.422;13.486;2024-02-26T00:26:56;100146.47;;;4.46;83.93
9695;BME280;4690;52.422;13.486;2024-02-26T00:29:22;100147.91;;;4.42;84.06
9695;BME280;4690;52.422;13.486;2024-02-26T00:31:48;100147.91;;;4.42;83.89
9695;BME280;4690;52.422;13.486;2024-02-26T00:34:14;100144.59;;;4.40;84.63
9695;BME280;4690;52.422;13.486;2024-02-26T00:36:40;100145.59;;;4.39;84.71
9695;BME280;4690;52.422;13.486;2024-02-26T00:39:06;100143.75;;;4.39;84.53
9695;BME280;4690;52.422;13.486;2024-02-26T00:41:32;100134.13;;;4.37;84.91
9695;BME280;4690;52.422;13.486;2024-02-26T00:43:57;100136.63;;;4.32;84.72
9695;BME280;4690;52.422;13.486;2024-02-26T00:46:23;100131.84;;;4.34;85.46
9695;BME280;4690;52.422;13.486;2024-02-26T00:48:49;100125.94;;;4.30;85.33
9695;BME280;4690;52.422;13.486;2024-02-26T00:51:14;100123.47;;;4.29;85.13
9695;BME280;4690;52.422;13.486;2024-02-26T00:53:40;100124.06;;;4.24;84.88
9695;BME280;4690;52.422;13.486;2024-02-26T00:56:06;100121.94;;;4.19;86.13
9695;BME280;4690;52.422;13.486;2024-02-26T00:58:32;100122.16;;;4.18;86.25
9695;BME280;4690;52.422;13.486;2024-02-26T01:00:58;100124.03;;;4.17;86.59
9695;BME280;4690;52.422;13.486;2024-02-26T01:03:24;100127.56;;;4.18;86.78
9695;BME280;4690;52.422;13.486;2024-02-26T01:05:49;100131.69;;;4.14;86.30
9695;BME280;4690;52.422;13.486;2024-02-26T01:08:15;100130.88;;;4.13;86.63
9695;BME280;4690;52.422;13.486;2024-02-26T01:10:41;100124.63;;;4.13;86.52
9695;BME280;4690;52.422;13.486;2024-02-26T01:13:06;100118.38;;;4.12;85.90
9695;BME280;4690;52.422;13.486;2024-02-26T01:15:33;100116.63;;;4.04;85.78
9695;BME280;4690;52.422;13.486;2024-02-26T01:17:59;100114.09;;;3.96;86.12
9695;BME280;4690;52.422;13.486;2024-02-26T01:20:24;100118.66;;;3.89;86.65
9695;BME280;4690;52.422;13.486;2024-02-26T01:22:50;100111.34;;;3.90;86.43
9695;BME280;4690;52.422;13.486;2024-02-26T01:25:16;100115.28;;;3.87;86.64
9695;BME280;4690;52.422;13.486;2024-02-26T01:27:42;100112.34;;;3.82;86.35
9695;BME280;4690;52.422;13.486;2024-02-26T01:30:10;100120.69;;;3.80;86.58
9695;BME280;4690;52.422;13.486;2024-02-26T01:32:36;100119.19;;;3.78;87.02
9695;BME280;4690;52.422;13.486;2024-02-26T01:35:02;100131.06;;;3.77;86.89
9695;BME280;4690;52.422;13.486;2024-02-26T01:37:33;100123.72;;;3.71;87.06
9695;BME280;4690;52.422;13.486;2024-02-26T01:39:58;100116.38;;;3.65;87.43
9695;BME280;4690;52.422;13.486;2024-02-26T01:42:24;100114.06;;;3.62;87.45
9695;BME280;4690;52.422;13.486;2024-02-26T01:44:50;100118.44;;;3.63;88.12
9695;BME280;4690;52.422;13.486;2024-02-26T01:47:15;100108.84;;;3.60;87.51
9695;BME280;4690;52.422;13.486;2024-02-26T01:49:41;100120.53;;;3.61;87.78
9695;BME280;4690;52.422;13.486;2024-02-26T01:52:09;100119.50;;;3.62;87.19
9695;BME280;4690;52.422;13.486;2024-02-26T01:54:37;100118.19;;;3.57;87.63
9695;BME280;4690;52.422;13.486;2024-02-26T01:57:06;100117.75;;;3.54;87.52
9695;BME280;4690;52.422;13.486;2024-02-26T01:59:33;100117.13;;;3.52;87.78
9695;BME280;4690;52.422;13.486;2024-02-26T02:02:03;100113.78;;;3.50;88.05
9695;BME280;4690;52.422;13.486;2024-02-26T02:04:30;100121.44;;;3.46;88.11
9695;BME280;4690;52.422;13.486;2024-02-26T02:06:58;100124.16;;;3.46;87.92
9695;BME280;4690;52.422;13.486;2024-02-26T02:09:27;100130.22;;;3.48;87.99
9695;BME280;4690;52.422;13.486;2024-02-26T02:11:54;100126.25;;;3.44;87.75
9695;BME280;4690;52.422;13.486;2024-02-26T02:14:20;100127.25;;;3.43;87.82
9695;BME280;4690;52.422;13.486;2024-02-26T02:16:47;100125.78;;;3.41;88.29
9695;BME280;4690;52.422;13.486;2024-02-26T02:19:13;100124.09;;;3.40;87.70
9695;BME280;4690;52.422;13.486;2024-02-26T02:21:39;100127.03;;;3.38;87.75
9695;BME280;4690;52.422;13.486;2024-02-26T02:24:05;100115.53;;;3.36;87.52
9695;BME280;4690;52.422;13.486;2024-02-26T02:26:31;100123.84;;;3.34;87.62
9695;BME280;4690;52.422;13.486;2024-02-26T02:28:58;100125.94;;;3.32;87.23
9695;BME280;4690;52.422;13.486;2024-02-26T02:31:25;100130.31;;;3.33;87.48
9695;BME280;4690;52.422;13.486;2024-02-26T02:33:50;100124.44;;;3.30;87.40
9695;BME280;4690;52.422;13.486;2024-02-26T02:36:16;100132.97;;;3.27;86.76
9695;BME280;4690;52.422;13.486;2024-02-26T02:38:50;100127.47;;;3.20;87.10
9695;BME280;4690;52.422;13.486;2024-02-26T02:41:16;100131.41;;;3.18;87.23
9695;BME280;4690;52.422;13.486;2024-02-26T02:43:42;100115.56;;;3.14;87.14
9695;BME280;4690;52.422;13.486;2024-02-26T02:46:07;100118.91;;;3.17;87.11
9695;BME280;4690;52.422;13.486;2024-02-26T02:48:33;100126.00;;;3.18;87.32
9695;BME280;4690;52.422;13.486;2024-02-26T02:50:59;100121.34;;;3.11;87.00
9695;BME280;4690;52.422;13.486;2024-02-26T02:53:25;100131.75;;;3.08;87.93
9695;BME280;4690;52.422;13.486;2024-02-26T02:55:50;100122.56;;;3.09;87.99
9695;BME280;4690;52.422;13.486;2024-02-26T02:58:16;100131.34;;;3.11;88.00
9695;BME280;4690;52.422;13.486;2024-02-26T03:00:42;100140.50;;;3.10;87.91
9695;BME280;4690;52.422;13.486;2024-02-26T03:03:07;100134.06;;;3.11;88.15
9695;BME280;4690;52.422;13.486;2024-02-26T03:05:33;100133.22;;;3.10;88.46
9695;BME280;4690;52.422;13.486;2024-02-26T03:07:59;100128.63;;;3.11;88.17
9695;BME280;4690;52.422;13.486;2024-02-26T03:10:25;100135.94;;;3.10;88.36
9695;BME280;4690;52.422;13.486;2024-02-26T03:12:50;100134.06;;;3.11;88.07
9695;BME280;4690;52.422;13.486;2024-02-26T03:15:16;100135.47;;;3.07;87.87
9695;BME280;4690;52.422;13.486;2024-02-26T03:17:42;100126.25;;;3.01;88.01
9695;BME280;4690;52.422;13.486;2024-02-26T03:20:09;100126.44;;;3.00;87.85
9695;BME280;4690;52.422;13.486;2024-02-26T03:22:35;100125.34;;;2.94;87.65
9695;BME280;4690;52.422;13.486;2024-02-26T03:25:01;100127.22;;;2.94;88.48
9695;BME280;4690;52.422;13.486;2024-02-26T03:27:27;100127.22;;;2.94;88.07
9695;BME280;4690;52.422;13.486;2024-02-26T03:29:52;100132.63;;;2.94;88.10
9695;BME280;4690;52.422;13.486;2024-02-26T03:32:18;100119.69;;;2.89;88.16
9695;BME280;4690;52.422;13.486;2024-02-26T03:34:44;100118.19;;;2.86;88.05
9695;BME280;4690;52.422;13.486;2024-02-26T03:37:10;100112.59;;;2.88;88.28
9695;BME280;4690;52.422;13.486;2024-02-26T03:39:37;100117.19;;;2.87;87.68
9695;BME280;4690;52.422;13.486;2024-02-26T03:42:03;100125.19;;;2.81;88.08
9695;BME280;4690;52.422;13.486;2024-02-26T03:44:29;100128.50;;;2.76;88.23
9695;BME280;4690;52.422;13.486;2024-02-26T03:46:55;100138.28;;;2.77;88.57
9695;BME280;4690;52.422;13.486;2024-02-26T03:49:21;100131.84;;;2.78;88.50
9695;BME280;4690;52.422;13.486;2024-02-26T03:51:48;100133.44;;;2.73;88.83
9695;BME280;4690;52.422;13.486;2024-02-26T03:54:14;100131.31;;;2.68;88.97
9695;BME280;4690;52.422;13.486;2024-02-26T03:56:40;100132.34;;;2.67;89.37
9695;BME280;4690;52.422;13.486;2024-02-26T03:59:05;100133.81;;;2.69;89.62
9695;BME280;4690;52.422;13.486;2024-02-26T04:01:31;100135.69;;;2.69;89.29
9695;BME280;4690;52.422;13.486;2024-02-26T04:03:57;100140.94;;;2.71;89.61
9695;BME280;4690;52.422;13.486;2024-02-26T04:06:23;100131.78;;;2.72;89.80
9695;BME280;4690;52.422;13.486;2024-02-26T04:08:49;100132.44;;;2.74;89.24
9695;BME280;4690;52.422;13.486;2024-02-26T04:11:15;100127.00;;;2.74;88.93
9695;BME280;4690;52.422;13.486;2024-02-26T04:13:44;100137.75;;;2.67;89.12
9695;BME280;4690;52.422;13.486;2024-02-26T04:16:15;100142.31;;;2.66;89.84
9695;BME280;4690;52.422;13.486;2024-02-26T04:18:42;100147.56;;;2.68;89.40
9695;BME280;4690;52.422;13.486;2024-02-26T04:21:08;100148.38;;;2.68;89.90
9695;BME280;4690;52.422;13.486;2024-02-26T04:23:34;100144.56;;;2.63;89.94
9695;BME280;4690;52.422;13.486;2024-02-26T04:25:59;100151.66;;;2.64;89.83
9695;BME280;4690;52.422;13.486;2024-02-26T04:28:25;100153.53;;;2.63;90.47
9695;BME280;4690;52.422;13.486;2024-02-26T04:30:52;100167.25;;;2.62;90.73
9695;BME280;4690;52.422;13.486;2024-02-26T04:33:18;100160.59;;;2.64;90.91
9695;BME280;4690;52.422;13.486;2024-02-26T04:35:43;100163.13;;;2.66;90.90
9695;BME280;4690;52.422;13.486;2024-02-26T04:38:09;100171.91;;;2.68;91.00
9695;BME280;4690;52.422;13.486;2024-02-26T04:40:35;100168.97;;;2.69;90.46
9695;BME280;4690;52.422;13.486;2024-02-26T04:43:01;100177.94;;;2.70;90.21
9695;BME280;4690;52.422;13.486;2024-02-26T04:45:27;100180.91;;;2.75;90.25
9695;BME280;4690;52.422;13.486;2024-02-26T04:47:53;100179.25;;;2.74;90.36
9695;BME280;4690;52.422;13.486;2024-02-26T04:50:18;100183.63;;;2.75;89.91
9695;BME280;4690;52.422;13.486;2024-02-26T04:52:44;100181.56;;;2.77;90.21
9695;BME280;4690;52.422;13.486;2024-02-26T04:55:10;100172.16;;;2.73;90.08
9695;BME280;4690;52.422;13.486;2024-02-26T04:57:35;100169.25;;;2.75;90.58
9695;BME280;4690;52.422;13.486;2024-02-26T05:00:01;100179.25;;;2.74;90.27
9695;BME280;4690;52.422;13.486;2024-02-26T05:02:28;100174.00;;;2.73;91.24
9695;BME280;4690;52.422;13.486;2024-02-26T05:04:55;100184.84;;;2.73;90.97
9695;BME280;4690;52.422;13.486;2024-02-26T05:07:21;100181.50;;;2.71;91.37
9695;BME280;4690;52.422;13.486;2024-02-26T05:09:47;100188.75;;;2.70;91.58
9695;BME280;4690;52.422;13.486;2024-02-26T05:12:15;100187.81;;;2.78;91.92
9695;BME280;4690;52.422;13.486;2024-02-26T05:14:41;100186.78;;;2.79;91.72
9695;BME280;4690;52.422;13.486;2024-02-26T05:17:06;100190.13;;;2.81;91.53
9695;BME280;4690;52.422;13.486;2024-02-26T05:19:32;100198.72;;;2.84;91.53
9695;BME280;4690;52.422;13.486;2024-02-26T05:21:58;100188.91;;;2.83;91.17
9695;BME280;4690;52.422;13.486;2024-02-26T05:24:23;100201.63;;;2.83;91.02
9695;BME280;4690;52.422;13.486;2024-02-26T05:26:49;100198.53;;;2.86;91.62
9695;BME280;4690;52.422;13.486;2024-02-26T05:29:15;100210.00;;;2.88;91.05
9695;BME280;4690;52.422;13.486;2024-02-26T05:31:44;100208.59;;;2.92;91.17
9695;BME280;4690;52.422;13.486;2024-02-26T05:34:09;100206.09;;;2.90;90.97
9695;BME280;4690;52.422;13.486;2024-02-26T05:36:35;100205.22;;;2.90;90.79
9695;BME280;4690;52.422;13.486;2024-02-26T05:39:01;100207.94;;;2.90;90.98
9695;BME280;4690;52.422;13.486;2024-02-26T05:41:29;100211.22;;;2.85;91.49
9695;BME280;4690;52.422;13.486;2024-02-26T05:43:55;100204.97;;;2.85;91.72
9695;BME280;4690;52.422;13.486;2024-02-26T05:46:22;100215.22;;;2.89;91.40
9695;BME280;4690;52.422;13.486;2024-02-26T05:48:51;100217.28;;;2.87;91.12
9695;BME280;4690;52.422;13.486;2024-02-26T05:51:18;100218.31;;;2.86;91.21
9695;BME280;4690;52.422;13.486;2024-02-26T05:53:44;100225.41;;;2.87;91.71
9695;BME280;4690;52.422;13.486;2024-02-26T05:56:09;100216.44;;;2.87;91.59
9695;BME280;4690;52.422;13.486;2024-02-26T05:58:35;100228.13;;;2.87;91.59
9695;BME280;4690;52.422;13.486;2024-02-26T06:01:01;100231.44;;;2.89;91.78
9695;BME280;4690;52.422;13.486;2024-02-26T06:03:27;100233.97;;;2.91;91.68
9695;BME280;4690;52.422;13.486;2024-02-26T06:05:53;100239.28;;;2.84;91.75
9695;BME280;4690;52.422;13.486;2024-02-26T06:08:19;100242.28;;;2.89;91.77
9695;BME280;4690;52.422;13.486;2024-02-26T06:10:44;100238.56;;;2.90;92.10
9695;BME280;4690;52.422;13.486;2024-02-26T06:13:11;100239.94;;;2.86;92.68
9695;BME280;4690;52.422;13.486;2024-02-26T06:15:36;100236.69;;;2.91;92.65
9695;BME280;4690;52.422;13.486;2024-02-26T06:18:02;100238.81;;;2.96;93.07
9695;BME280;4690;52.422;13.486;2024-02-26T06:20:28;100243.88;;;2.99;92.98
9695;BME280;4690;52.422;13.486;2024-02-26T06:22:54;100246.44;;;3.07;92.96
9695;BME280;4690;52.422;13.486;2024-02-26T06:25:20;100246.31;;;3.15;93.47
9695;BME280;4690;52.422;13.486;2024-02-26T06:27:45;100248.28;;;3.21;93.28
9695;BME280;4690;52.422;13.486;2024-02-26T06:30:12;100250.41;;;3.26;93.34
9695;BME280;4690;52.422;13.486;2024-02-26T06:32:38;100253.22;;;3.32;93.40
9695;BME280;4690;52.422;13.486;2024-02-26T06:35:04;100257.47;;;3.42;93.29
9695;BME280;4690;52.422;13.486;2024-02-26T06:37:35;100255.03;;;3.47;93.72
9695;BME280;4690;52.422;13.486;2024-02-26T06:40:02;100257.44;;;3.63;93.45
9695;BME280;4690;52.422;13.486;2024-02-26T06:42:32;100249.28;;;3.78;93.53
9695;BME280;4690;52.422;13.486;2024-02-26T06:44:58;100259.38;;;3.91;93.30
9695;BME280;4690;52.422;13.486;2024-02-26T06:47:24;100266.78;;;4.03;92.74
9695;BME280;4690;52.422;13.486;2024-02-26T06:49:51;100261.09;;;4.20;92.87
9695;BME280;4690;52.422;13.486;2024-02-26T06:52:17;100260.59;;;4.44;93.01
9695;BME280;4690;52.422;13.486;2024-02-26T06:54:43;100268.31;;;4.76;92.98
9695;BME280;4690;52.422;13.486;2024-02-26T06:57:08;100266.81;;;5.14;92.88
9695;BME280;4690;52.422;13.486;2024-02-26T06:59:34;100275.50;;;5.51;90.69
9695;BME280;4690;52.422;13.486;2024-02-26T07:02:00;100276.63;;;5.97;89.99
9695;BME280;4690;52.422;13.486;2024-02-26T07:04:26;100279.16;;;6.45;88.32
9695;BME280;4690;52.422;13.486;2024-02-26T07:06:51;100278.66;;;6.74;84.42
9695;BME280;4690;52.422;13.486;2024-02-26T07:09:17;100281.22;;;7.28;83.40
9695;BME280;4690;52.422;13.486;2024-02-26T07:11:43;100283.06;;;7.72;81.40
9695;BME280;4690;52.422;13.486;2024-02-26T07:14:10;100284.69;;;8.12;78.75
9695;BME280;4690;52.422;13.486;2024-02-26T07:16:36;100293.28;;;8.40;74.84
9695;BME280;4690;52.422;13.486;2024-02-26T07:19:02;100285.72;;;8.61;73.90
9695;BME280;4690;52.422;13.486;2024-02-26T07:21:28;100280.06;;;8.81;72.25
9695;BME280;4690;52.422;13.486;2024-02-26T07:23:54;100277.94;;;8.83;71.90
9695;BME280;4690;52.422;13.486;2024-02-26T07:26:20;100275.44;;;9.00;71.65
9695;BME280;4690;52.422;13.486;2024-02-26T07:28:46;100273.91;;;9.22;70.21
9695;BME280;4690;52.422;13.486;2024-02-26T07:31:12;100274.31;;;9.37;69.71
9695;BME280;4690;52.422;13.486;2024-02-26T07:33:38;100275.66;;;9.35;68.37
9695;BME280;4690;52.422;13.486;2024-02-26T07:36:04;100282.47;;;9.26;67.99
9695;BME280;4690;52.422;13.486;2024-02-26T07:38:30;100282.19;;;9.15;69.30
9695;BME280;4690;52.422;13.486;2024-02-26T07:40:56;100282.19;;;9.15;69.42
9695;BME280;4690;52.422;13.486;2024-02-26T07:43:22;100279.88;;;9.31;69.23
9695;BME280;4690;52.422;13.486;2024-02-26T07:45:48;100285.44;;;9.06;69.10
9695;BME280;4690;52.422;13.486;2024-02-26T07:48:14;100281.59;;;9.13;69.53
9695;BME280;4690;52.422;13.486;2024-02-26T07:50:40;100274.53;;;9.06;69.48
9695;BME280;4690;52.422;13.486;2024-02-26T07:53:06;100279.88;;;8.57;71.51
9695;BME280;4690;52.422;13.486;2024-02-26T07:55:32;100283.00;;;8.61;72.34
9695;BME280;4690;52.422;13.486;2024-02-26T07:57:57;100281.91;;;8.43;73.28
9695;BME280;4690;52.422;13.486;2024-02-26T08:00:23;100278.88;;;8.26;74.82
9695;BME280;4690;52.422;13.486;2024-02-26T08:02:49;100284.16;;;8.21;75.02
9695;BME280;4690;52.422;13.486;2024-02-26T08:05:14;100280.03;;;8.12;75.61
9695;BME280;4690;52.422;13.486;2024-02-26T08:07:40;100283.59;;;8.13;75.72
9695;BME280;4690;52.422;13.486;2024-02-26T08:10:07;100285.66;;;7.92;76.35
9695;BME280;4690;52.422;13.486;2024-02-26T08:12:33;100296.44;;;7.80;76.98
9695;BME280;4690;52.422;13.486;2024-02-26T08:14:59;100289.50;;;8.09;76.78
9695;BME280;4690;52.422;13.486;2024-02-26T08:17:25;100298.97;;;8.07;76.19
9695;BME280;4690;52.422;13.486;2024-02-26T08:19:52;100299.50;;;7.91;77.48
9695;BME280;4690;52.422;13.486;2024-02-26T08:22:18;100305.91;;;7.78;77.30
9695;BME280;4690;52.422;13.486;2024-02-26T08:24:44;100301.28;;;7.78;78.95
9695;BME280;4690;52.422;13.486;2024-02-26T08:27:10;100287.38;;;7.86;78.18
9695;BME280;4690;52.422;13.486;2024-02-26T08:29:36;100289.31;;;8.11;78.15
9695;BME280;4690;52.422;13.486;2024-02-26T08:32:02;100288.78;;;8.71;76.71
9695;BME280;4690;52.422;13.486;2024-02-26T08:34:28;100289.56;;;8.96;74.19
9695;BME280;4690;52.422;13.486;2024-02-26T08:36:54;100296.47;;;8.56;75.56
9695;BME280;4690;52.422;13.486;2024-02-26T08:39:19;100285.22;;;8.89;73.54
9695;BME280;4690;52.422;13.486;2024-02-26T08:41:46;100290.00;;;8.75;74.35
9695;BME280;4690;52.422;13.486;2024-02-26T08:44:12;100287.03;;;8.95;74.15
9695;BME280;4690;52.422;13.486;2024-02-26T08:46:37;100285.16;;;9.32;73.28
9695;BME280;4690;52.422;13.486;2024-02-26T08:49:04;100286.66;;;9.28;72.89
9695;BME280;4690;52.422;13.486;2024-02-26T08:51:29;100280.41;;;9.39;72.27
9695;BME280;4690;52.422;13.486;2024-02-26T08:53:56;100281.69;;;9.97;71.96
9695;BME280;4690;52.422;13.486;2024-02-26T08:56:22;100284.50;;;10.32;69.80
9695;BME280;4690;52.422;13.486;2024-02-26T08:58:48;100282.97;;;10.95;67.10
9695;BME280;4690;52.422;13.486;2024-02-26T09:01:17;100277.09;;;10.92;66.41
9695;BME280;4690;52.422;13.486;2024-02-26T09:03:43;100287.59;;;10.95;65.81
9695;BME280;4690;52.422;13.486;2024-02-26T09:06:08;100272.72;;;11.31;65.40
9695;BME280;4690;52.422;13.486;2024-02-26T09:08:34;100278.31;;;10.84;66.37
9695;BME280;4690;52.422;13.486;2024-02-26T09:11:02;100270.50;;;11.16;65.99
9695;BME280;4690;52.422;13.486;2024-02-26T09:13:29;100276.00;;;11.16;65.66
9695;BME280;4690;52.422;13.486;2024-02-26T09:15:54;100275.47;;;10.55;66.89
9695;BME280;4690;52.422;13.486;2024-02-26T09:18:20;100284.50;;;10.44;67.89
9695;BME280;4690;52.422;13.486;2024-02-26T09:20:46;100274.16;;;10.46;68.05
9695;BME280;4690;52.422;13.486;2024-02-26T09:23:12;100274.28;;;10.28;69.06
9695;BME280;4690;52.422;13.486;2024-02-26T09:25:38;100271.03;;;10.19;69.53
9695;BME280;4690;52.422;13.486;2024-02-26T09:28:04;100281.22;;;9.58;71.26
9695;BME280;4690;52.422;13.486;2024-02-26T09:30:29;100278.78;;;9.50;72.07
9695;BME280;4690;52.422;13.486;2024-02-26T09:32:55;100280.28;;;10.06;71.05
9695;BME280;4690;52.422;13.486;2024-02-26T09:35:21;100297.31;;;10.08;70.46
9695;BME280;4690;52.422;13.486;2024-02-26T09:37:47;100284.44;;;10.09;70.19
9695;BME280;4690;52.422;13.486;2024-02-26T09:40:14;100286.28;;;10.27;70.11
9695;BME280;4690;52.422;13.486;2024-02-26T09:42:45;100291.19;;;10.48;69.58
9695;BME280;4690;52.422;13.486;2024-02-26T09:45:19;100289.41;;;10.66;69.03
9695;BME280;4690;52.422;13.486;2024-02-26T09:47:48;100298.31;;;10.96;68.34
9695;BME280;4690;52.422;13.486;2024-02-26T09:50:17;100300.78;;;11.21;66.56
9695;BME280;4690;52.422;13.486;2024-02-26T09:52:44;100294.09;;;11.17;66.44
9695;BME280;4690;52.422;13.486;2024-02-26T09:55:10;100287.94;;;11.10;66.26
9695;BME280;4690;52.422;13.486;2024-02-26T09:57:45;100290.34;;;10.83;67.00
9695;BME280;4690;52.422;13.486;2024-02-26T10:00:17;100285.47;;;10.85;68.04
9695;BME280;4690;52.422;13.486;2024-02-26T10:02:47;100294.88;;;10.89;66.59
9695;BME280;4690;52.422;13.486;2024-02-26T10:05:17;100294.09;;;11.29;66.30
9695;BME280;4690;52.422;13.486;2024-02-26T10:07:45;100292.72;;;10.91;66.68
9695;BME280;4690;52.422;13.486;2024-02-26T10:10:13;100297.88;;;10.76;67.66
9695;BME280;4690;52.422;13.486;2024-02-26T10:12:39;100293.69;;;10.85;67.62
9695;BME280;4690;52.422;13.486;2024-02-26T10:15:05;100295.31;;;11.21;66.95
9695;BME280;4690;52.422;13.486;2024-02-26T10:17:31;100298.97;;;11.27;66.05
9695;BME280;4690;52.422;13.486;2024-02-26T10:20:18;100296.97;;;11.22;68.05
9695;BME280;4690;52.422;13.486;2024-02-26T10:22:47;100292.09;;;11.13;67.37
9695;BME280;4690;52.422;13.486;2024-02-26T10:25:13;100287.75;;;11.40;67.37
9695;BME280;4690;52.422;13.486;2024-02-26T10:27:43;100295.56;;;11.49;66.71
9695;BME280;4690;52.422;13.486;2024-02-26T10:30:19;100290.09;;;11.77;65.58
9695;BME280;4690;52.422;13.486;2024-02-26T10:32:46;100289.59;;;11.80;66.10
9695;BME280;4690;52.422;13.486;2024-02-26T10:35:14;100290.56;;;11.86;65.13
9695;BME280;4690;52.422;13.486;2024-02-26T10:37:41;100294.00;;;11.81;65.06
9695;BME280;4690;52.422;13.486;2024-02-26T10:40:14;100300.88;;;11.96;65.26
9695;BME280;4690;52.422;13.486;2024-02-26T10:42:41;100290.75;;;12.13;62.35
9695;BME280;4690;52.422;13.486;2024-02-26T10:45:09;100293.34;;;11.74;63.23
9695;BME280;4690;52.422;13.486;2024-02-26T10:47:36;100295.00;;;11.75;63.59
9695;BME280;4690;52.422;13.486;2024-02-26T10:50:05;100298.50;;;12.33;62.86
9695;BME280;4690;52.422;13.486;2024-02-26T10:52:36;100302.50;;;12.59;60.78
9695;BME280;4690;52.422;13.486;2024-02-26T10:55:04;100300.25;;;12.56;60.52
9695;BME280;4690;52.422;13.486;2024-02-26T10:57:39;100301.50;;;12.65;59.45
9695;BME280;4690;52.422;13.486;2024-02-26T11:00:07;100296.66;;;12.55;60.06
9695;BME280;4690;52.422;13.486;2024-02-26T11:02:40;100293.38;;;12.92;58.15
9695;BME280;4690;52.422;13.486;2024-02-26T11:05:07;100290.34;;;12.94;58.14
9695;BME280;4690;52.422;13.486;2024-02-26T11:07:37;100292.06;;;13.39;57.26
9695;BME280;4690;52.422;13.486;2024-02-26T11:10:05;100286.47;;;13.78;55.85
9695;BME280;4690;52.422;13.486;2024-02-26T11:12:32;100302.69;;;13.52;55.96
9695;BME280;4690;52.422;13.486;2024-02-26T11:15:01;100292.25;;;13.54;55.47
9695;BME280;4690;52.422;13.486;2024-02-26T11:17:28;100284.75;;;13.72;55.44
9695;BME280;4690;52.422;13.486;2024-02-26T11:19:58;100290.56;;;14.02;54.31
9695;BME280;4690;52.422;13.486;2024-02-26T11:22:28;100299.84;;;14.23;52.44
9695;BME280;4690;52.422;13.486;2024-02-26T11:24:56;100289.25;;;14.10;52.43
9695;BME280;4690;52.422;13.486;2024-02-26T11:27:38;100290.69;;;14.18;52.53
9695;BME280;4690;52.422;13.486;2024-02-26T11:30:10;100288.00;;;14.55;52.34
9695;BME280;4690;52.422;13.486;2024-02-26T11:32:37;100288.44;;;14.42;51.62
9695;BME280;4690;52.422;13.486;2024-02-26T11:35:05;100284.44;;;14.60;51.44
9695;BME280;4690;52.422;13.486;2024-02-26T11:37:32;100292.16;;;14.57;52.21
9695;BME280;4690;52.422;13.486;2024-02-26T11:40:02;100289.03;;;14.49;50.84
9695;BME280;4690;52.422;13.486;2024-02-26T11:42:27;100290.53;;;14.29;51.03
9695;BME280;4690;52.422;13.486;2024-02-26T11:44:55;100284.97;;;14.24;50.79
9695;BME280;4690;52.422;13.486;2024-02-26T11:47:27;100283.84;;;13.93;50.54
9695;BME280;4690;52.422;13.486;2024-02-26T11:49:53;100291.31;;;14.25;49.52
9695;BME280;4690;52.422;13.486;2024-02-26T11:52:18;100281.53;;;14.44;49.71
9695;BME280;4690;52.422;13.486;2024-02-26T11:54:49;100292.16;;;14.57;48.67
9695;BME280;4690;52.422;13.486;2024-02-26T12:00:10;100288.44;;;14.47;49.23
9695;BME280;4690;52.422;13.486;2024-02-26T12:02:49;100284.78;;;14.68;48.08
9695;BME280;4690;52.422;13.486;2024-02-26T12:05:20;100285.03;;;14.67;48.45
9695;BME280;4690;52.422;13.486;2024-02-26T12:07:48;100278.38;;;14.57;49.66
9695;BME280;4690;52.422;13.486;2024-02-26T12:12:42;100275.59;;;14.57;48.43
9695;BME280;4690;52.422;13.486;2024-02-26T12:15:08;100277.56;;;14.62;48.19
9695;BME280;4690;52.422;13.486;2024-02-26T12:17:36;100270.50;;;14.44;48.79
9695;BME280;4690;52.422;13.486;2024-02-26T12:20:09;100275.44;;;14.37;49.02
9695;BME280;4690;52.422;13.486;2024-02-26T12:22:36;100282.09;;;14.78;48.04
9695;BME280;4690;52.422;13.486;2024-02-26T12:25:05;100277.44;;;14.84;46.57
9695;BME280;4690;52.422;13.486;2024-02-26T12:27:31;100290.88;;;14.70;46.55
9695;BME280;4690;52.422;13.486;2024-02-26T12:29:57;100287.50;;;14.63;48.00
9695;BME280;4690;52.422;13.486;2024-02-26T12:32:23;100297.09;;;14.55;47.09
9695;BME280;4690;52.422;13.486;2024-02-26T12:34:49;100308.34;;;14.81;46.64
9695;BME280;4690;52.422;13.486;2024-02-26T12:37:16;100299.06;;;14.28;47.15
9695;BME280;4690;52.422;13.486;2024-02-26T12:39:42;100297.84;;;14.13;47.56
9695;BME280;4690;52.422;13.486;2024-02-26T12:42:09;100302.31;;;13.93;47.96
9695;BME280;4690;52.422;13.486;2024-02-26T12:44:35;100304.72;;;14.16;48.08
9695;BME280;4690;52.422;13.486;2024-02-26T12:47:03;100309.72;;;14.51;46.96
9695;BME280;4690;52.422;13.486;2024-02-26T12:49:29;100301.84;;;14.33;46.43
9695;BME280;4690;52.422;13.486;2024-02-26T12:51:55;100296.84;;;14.25;46.37
9695;BME280;4690;52.422;13.486;2024-02-26T12:54:34;100290.44;;;14.19;45.89
9695;BME280;4690;52.422;13.486;2024-02-26T12:57:01;100290.75;;;14.23;46.54
9695;BME280;4690;52.422;13.486;2024-02-26T12:59:30;100290.56;;;14.34;45.37
9695;BME280;4690;52.422;13.486;2024-02-26T13:01:57;100299.09;;;14.65;45.29
9695;BME280;4690;52.422;13.486;2024-02-26T13:04:24;100294.53;;;14.49;45.88
9695;BME280;4690;52.422;13.486;2024-02-26T13:06:51;100299.59;;;14.57;44.70
9695;BME280;4690;52.422;13.486;2024-02-26T13:09:17;100299.03;;;14.55;45.90
9695;BME280;4690;52.422;13.486;2024-02-26T13:11:44;100293.09;;;14.41;44.81
9695;BME280;4690;52.422;13.486;2024-02-26T13:14:23;100291.22;;;14.15;46.05
9695;BME280;4690;52.422;13.486;2024-02-26T13:16:58;100298.00;;;14.34;46.31
9695;BME280;4690;52.422;13.486;2024-02-26T13:19:24;100299.13;;;13.79;47.18